Terminal Aerodrome Forecast
Issued by NWS

Home | Current Version | Previous Version | Text Only | Print | Product List | Glossary On
Versions: 1 2 3 4 5 6 7 8 9 10 11 12 13 14 15 16 17 18 19 20 21 22 23 24 25 26
000
FTUS41 KBUF 210304 AAA
TAFIAG
TAF AMD
KIAG 210304Z 2103/2124 23009KT P6SM BKN250
     FM210800 23007KT P6SM BKN020
     FM211500 22006KT P6SM OVC007
     FM211900 VRB03KT P6SM OVC007=

USA.gov is the U.S. government's official web portal to all federal, state and local government web resources and services.